Time;durP1;ratioP1;P1;durP2;ratioP2;P2;SDS_P1;SDS_P2;PMS_P1;PMS_P2;Temp;Humidity;BMP_temperature;BMP_pressure;BME280_temperature;BME280_humidity;BME280_pressure;Samples;Min_cycle;Max_cycle;Signal;HPM_P1;HPM_P2
2024/01/04 00:02:42;;;;;;;11.95;3.80;;;9.30;90.30;;;;;;9181829;19;20123;-71
2024/01/04 00:05:50;;;;;;;6.43;3.30;;;9.30;90.30;;;;;;9179333;19;20086;-71
2024/01/04 00:08:58;;;;;;;10.55;3.63;;;9.30;90.30;;;;;;9178019;19;20022;-76
2024/01/04 00:12:03;;;;;;;10.77;3.38;;;9.40;90.30;;;;;;9181610;19;20395;-75
2024/01/04 00:15:12;;;;;;;11.75;3.90;;;9.30;90.30;;;;;;9177343;19;20026;-74
2024/01/04 00:18:18;;;;;;;11.70;3.55;;;9.30;90.30;;;;;;9180086;19;20034;-75
2024/01/04 00:21:28;;;;;;;8.57;3.45;;;9.30;90.30;;;;;;9180879;19;20022;-75
2024/01/04 00:24:34;;;;;;;7.00;3.40;;;9.30;90.40;;;;;;9180568;19;20049;-75
2024/01/04 00:27:41;;;;;;;9.30;4.15;;;9.30;90.40;;;;;;9178122;19;20022;-75
2024/01/04 00:30:47;;;;;;;8.68;3.85;;;9.30;90.40;;;;;;9177985;19;20639;-75
2024/01/04 00:33:54;;;;;;;8.90;3.78;;;9.30;90.40;;;;;;9179251;19;20018;-76
2024/01/04 00:37:03;;;;;;;11.25;3.85;;;9.30;90.40;;;;;;9180931;19;20070;-74
2024/01/04 00:40:12;;;;;;;10.25;3.70;;;9.30;90.40;;;;;;9179380;19;20018;-75
2024/01/04 00:43:17;;;;;;;11.07;3.63;;;9.20;90.40;;;;;;9180636;19;20040;-75
2024/01/04 00:46:25;;;;;;;14.85;4.28;;;9.30;90.40;;;;;;9180400;19;20015;-74
2024/01/04 00:49:33;;;;;;;13.27;4.88;;;9.20;90.40;;;;;;9178861;19;20025;-74
2024/01/04 00:52:44;;;;;;;15.50;4.10;;;9.20;90.40;;;;;;9177698;19;20018;-74
2024/01/04 00:55:55;;;;;;;13.57;3.72;;;9.20;90.40;;;;;;9179357;19;20718;-75
2024/01/04 00:59:03;;;;;;;9.00;4.32;;;9.20;90.40;;;;;;9175262;19;20006;-75
2024/01/04 01:02:09;;;;;;;9.93;3.80;;;9.20;90.40;;;;;;9178421;19;20016;-73
2024/01/04 01:05:16;;;;;;;11.63;3.47;;;9.20;90.40;;;;;;9179121;19;20033;-74
2024/01/04 01:08:25;;;;;;;7.65;3.03;;;9.20;90.40;;;;;;9176354;19;20484;-73
2024/01/04 01:11:32;;;;;;;8.38;2.55;;;9.10;90.60;;;;;;9176411;19;20014;-73
2024/01/04 01:14:38;;;;;;;8.13;2.20;;;9.10;90.30;;;;;;9173242;19;20086;-73
2024/01/04 01:17:47;;;;;;;5.65;2.15;;;9.10;90.30;;;;;;9177888;19;20056;-73
2024/01/04 01:20:55;;;;;;;5.25;2.28;;;9.00;90.30;;;;;;9178000;19;20107;-73
2024/01/04 01:24:06;;;;;;;5.60;2.60;;;9.00;90.30;;;;;;9178930;19;20018;-73
2024/01/04 01:27:12;;;;;;;3.17;2.10;;;8.90;90.20;;;;;;9178394;19;20014;-72
2024/01/04 01:30:19;;;;;;;9.80;2.65;;;8.90;90.30;;;;;;9175811;19;20019;-73
2024/01/04 01:33:25;;;;;;;4.93;2.03;;;8.90;90.30;;;;;;9178379;19;20607;-73
2024/01/04 01:36:33;;;;;;;6.45;1.77;;;8.80;90.20;;;;;;9176344;19;20026;-73
2024/01/04 01:39:42;;;;;;;7.05;1.80;;;8.90;90.30;;;;;;9177247;19;20362;-73
2024/01/04 01:42:50;;;;;;;4.72;1.90;;;8.80;90.20;;;;;;9177075;19;20019;-74
2024/01/04 01:45:55;;;;;;;7.47;1.65;;;8.80;90.20;;;;;;9177553;19;20478;-73
2024/01/04 01:49:06;;;;;;;2.10;1.33;;;8.80;90.50;;;;;;9176048;19;20397;-74
2024/01/04 01:52:12;;;;;;;3.15;1.50;;;8.70;90.20;;;;;;9177250;19;20020;-74
2024/01/04 01:55:23;;;;;;;3.22;1.40;;;8.60;90.20;;;;;;9175765;19;20022;-73
2024/01/04 01:58:29;;;;;;;6.55;1.48;;;8.60;90.20;;;;;;9173645;19;20052;-74
2024/01/04 02:01:39;;;;;;;4.85;0.98;;;8.60;90.20;;;;;;9175110;19;20026;-75
2024/01/04 02:04:45;;;;;;;3.72;1.13;;;8.60;90.20;;;;;;9175070;19;20022;-74
2024/01/04 02:07:53;;;;;;;4.95;1.25;;;8.60;90.20;;;;;;9172673;19;20030;-74
2024/01/04 02:11:01;;;;;;;2.53;0.80;;;8.60;90.20;;;;;;9175064;19;20018;-75
2024/01/04 02:14:09;;;;;;;3.35;0.73;;;8.60;90.20;;;;;;9170056;19;20673;-74
2024/01/04 02:17:15;;;;;;;6.43;1.00;;;8.50;90.10;;;;;;9175090;19;20362;-73
2024/01/04 02:20:23;;;;;;;2.88;0.57;;;8.50;90.10;;;;;;9174424;19;20374;-74
2024/01/04 02:23:31;;;;;;;4.25;0.80;;;8.50;90.20;;;;;;9175929;19;20018;-73
2024/01/04 02:26:39;;;;;;;2.00;0.60;;;8.50;90.10;;;;;;9174982;19;20365;-74
2024/01/04 02:29:44;;;;;;;2.28;0.80;;;8.40;90.40;;;;;;9175063;19;20043;-75
2024/01/04 02:32:53;;;;;;;2.95;0.65;;;8.40;90.10;;;;;;9174597;19;20021;-74
2024/01/04 02:36:05;;;;;;;5.38;1.23;;;8.40;90.10;;;;;;9176110;19;20010;-74
2024/01/04 02:39:15;;;;;;;4.05;0.98;;;8.40;90.10;;;;;;9175279;19;20913;-74
2024/01/04 02:42:32;;;;;;;4.78;0.90;;;8.40;90.10;;;;;;9173862;19;20014;-73
2024/01/04 02:45:40;;;;;;;8.15;1.15;;;8.30;90.00;;;;;;9173007;19;20006;-73
2024/01/04 02:48:45;;;;;;;4.65;0.90;;;8.30;90.00;;;;;;9174567;19;20015;-74
2024/01/04 02:51:56;;;;;;;3.08;1.10;;;8.30;90.10;;;;;;9171399;19;20485;-74
2024/01/04 02:55:04;;;;;;;6.57;1.30;;;8.30;90.00;;;;;;9172534;19;20087;-73
2024/01/04 02:58:11;;;;;;;2.83;0.77;;;8.30;90.10;;;;;;9174389;19;20017;-73
2024/01/04 03:01:21;;;;;;;8.30;1.38;;;8.20;90.00;;;;;;9174351;19;20069;-73
2024/01/04 03:04:28;;;;;;;4.28;0.88;;;8.20;90.00;;;;;;9172009;19;20023;-73
2024/01/04 03:07:34;;;;;;;16.42;1.13;;;8.20;90.10;;;;;;9171850;19;20045;-73
2024/01/04 03:10:44;;;;;;;6.75;1.05;;;8.20;90.00;;;;;;9172420;19;20490;-73
2024/01/04 03:13:50;;;;;;;3.58;0.77;;;8.20;90.00;;;;;;9168303;19;20106;-73
2024/01/04 03:16:58;;;;;;;4.07;0.98;;;8.20;90.10;;;;;;9173927;19;20033;-74
2024/01/04 03:20:04;;;;;;;5.07;0.90;;;8.20;90.10;;;;;;9174081;19;20010;-73
2024/01/04 03:23:11;;;;;;;7.97;1.40;;;8.20;90.00;;;;;;9177756;19;20029;-73
2024/01/04 03:26:19;;;;;;;3.47;0.77;;;8.20;90.00;;;;;;9183675;19;20020;-73
2024/01/04 03:29:27;;;;;;;5.07;1.00;;;8.10;90.00;;;;;;9183809;19;20022;-73
2024/01/04 03:32:32;;;;;;;5.75;0.98;;;8.20;90.10;;;;;;9178848;19;20017;-74
2024/01/04 03:35:40;;;;;;;5.15;1.15;;;8.10;90.00;;;;;;9183606;19;20034;-74
2024/01/04 03:38:46;;;;;;;3.90;0.82;;;8.10;90.30;;;;;;9182119;19;20010;-74
2024/01/04 03:41:56;;;;;;;7.00;1.50;;;8.20;90.10;;;;;;9181623;19;20027;-75
2024/01/04 03:45:02;;;;;;;3.13;1.23;;;8.10;90.30;;;;;;9183316;19;20007;-74
2024/01/04 03:48:10;;;;;;;8.07;1.27;;;8.10;90.00;;;;;;9182857;19;20029;-73
2024/01/04 03:51:16;;;;;;;2.30;0.82;;;8.20;90.00;;;;;;9180302;19;20014;-74
2024/01/04 03:54:24;;;;;;;0.73;0.63;;;8.10;90.00;;;;;;9182616;19;20014;-74
2024/01/04 03:57:32;;;;;;;2.17;0.80;;;8.10;90.00;;;;;;9182177;19;20021;-73
2024/01/04 04:00:43;;;;;;;3.95;1.23;;;8.10;90.00;;;;;;9181741;19;20018;-74
2024/01/04 04:03:48;;;;;;;6.15;1.13;;;8.10;90.00;;;;;;9181374;19;20010;-75
2024/01/04 04:06:56;;;;;;;4.57;0.98;;;8.10;90.00;;;;;;9182250;19;20019;-76
2024/01/04 04:10:03;;;;;;;3.83;0.82;;;8.10;90.00;;;;;;9181964;19;20018;-75
2024/01/04 04:13:13;;;;;;;2.00;0.73;;;8.10;90.00;;;;;;9178885;19;20014;-74
2024/01/04 04:16:19;;;;;;;9.50;1.33;;;8.10;90.00;;;;;;9179896;19;20014;-74
2024/01/04 04:19:26;;;;;;;5.22;1.52;;;8.10;90.00;;;;;;9182991;19;20019;-75
2024/01/04 04:22:32;;;;;;;6.10;1.27;;;8.10;90.00;;;;;;9186366;19;20102;-74
2024/01/04 04:25:40;;;;;;;8.98;1.83;;;8.10;90.00;;;;;;9180627;19;20023;-74
2024/01/04 04:28:48;;;;;;;5.68;0.85;;;8.10;90.00;;;;;;9179457;19;20011;-75
2024/01/04 04:31:57;;;;;;;4.03;1.05;;;8.10;90.00;;;;;;9178834;19;20022;-74
2024/01/04 04:35:02;;;;;;;4.55;0.90;;;8.10;90.00;;;;;;9177772;19;20894;-74
2024/01/04 04:38:10;;;;;;;2.95;0.90;;;8.10;90.00;;;;;;9181087;19;20483;-74
2024/01/04 04:41:16;;;;;;;2.17;0.80;;;8.10;90.00;;;;;;9180619;19;20041;-74
2024/01/04 04:44:26;;;;;;;8.75;1.17;;;8.10;89.90;;;;;;9180456;19;20056;-73
2024/01/04 04:47:31;;;;;;;9.23;1.02;;;8.10;89.90;;;;;;9174640;19;20022;-74
2024/01/04 04:50:39;;;;;;;3.40;0.93;;;8.10;89.90;;;;;;9178294;19;20018;-74
2024/01/04 04:53:44;;;;;;;3.08;0.82;;;8.10;89.90;;;;;;9180691;19;20041;-74
2024/01/04 04:56:52;;;;;;;8.02;1.23;;;8.10;90.00;;;;;;9178909;19;20492;-74
2024/01/04 05:00:00;;;;;;;9.43;1.45;;;8.10;89.90;;;;;;9177435;19;20599;-74
2024/01/04 05:03:08;;;;;;;1.00;0.50;;;8.10;89.90;;;;;;9178891;19;20022;-75
2024/01/04 05:06:14;;;;;;;4.50;1.08;;;8.10;90.00;;;;;;9176654;19;20019;-74
2024/01/04 05:09:22;;;;;;;6.22;0.77;;;8.00;89.90;;;;;;9179312;19;20022;-75
2024/01/04 05:12:31;;;;;;;5.47;0.98;;;8.00;89.80;;;;;;9172849;19;20021;-73
2024/01/04 05:15:42;;;;;;;2.58;0.73;;;8.00;89.80;;;;;;9179441;19;20018;-74
2024/01/04 05:18:48;;;;;;;8.63;1.48;;;8.00;89.80;;;;;;9178762;19;20018;-74
2024/01/04 05:21:58;;;;;;;5.68;0.98;;;8.00;89.80;;;;;;9179249;19;20018;-73
2024/01/04 05:25:05;;;;;;;2.40;0.70;;;8.00;89.80;;;;;;9177234;19;20011;-73
2024/01/04 05:28:14;;;;;;;14.50;2.17;;;8.00;89.80;;;;;;9179471;19;20011;-74
2024/01/04 05:31:23;;;;;;;7.28;0.90;;;8.00;89.70;;;;;;9175953;19;20359;-74
2024/01/04 05:34:32;;;;;;;2.97;0.47;;;7.90;89.70;;;;;;9177037;19;20490;-73
2024/01/04 05:37:38;;;;;;;1.92;0.88;;;7.90;89.70;;;;;;9175504;19;20013;-73
2024/01/04 05:40:45;;;;;;;8.65;1.05;;;7.90;89.70;;;;;;9176072;19;20435;-74
2024/01/04 05:43:51;;;;;;;9.45;0.88;;;7.90;89.60;;;;;;9174950;19;20874;-74
2024/01/04 05:47:01;;;;;;;11.10;1.02;;;7.90;89.70;;;;;;9176007;19;20033;-74
2024/01/04 05:50:08;;;;;;;6.45;0.93;;;7.90;89.70;;;;;;9177621;19;20090;-75
2024/01/04 05:53:17;;;;;;;5.35;0.98;;;7.90;89.70;;;;;;9175367;19;20026;-74
2024/01/04 05:56:23;;;;;;;8.60;1.73;;;7.90;89.70;;;;;;9177927;19;20018;-74
2024/01/04 05:59:30;;;;;;;5.72;0.70;;;7.80;89.60;;;;;;9175345;19;20018;-75
2024/01/04 06:02:38;;;;;;;2.38;0.90;;;7.80;89.60;;;;;;9174970;19;20025;-74
2024/01/04 06:05:46;;;;;;;3.80;1.85;;;7.90;89.60;;;;;;9175070;19;20018;-74
2024/01/04 06:08:52;;;;;;;6.47;1.30;;;7.80;89.60;;;;;;9177297;19;20011;-73
2024/01/04 06:12:00;;;;;;;5.43;0.80;;;7.80;89.50;;;;;;9174226;19;20052;-75
2024/01/04 06:15:06;;;;;;;4.50;0.68;;;7.80;89.50;;;;;;9172693;19;20018;-75
2024/01/04 06:18:16;;;;;;;6.47;1.05;;;7.80;89.50;;;;;;9176970;19;20022;-74
2024/01/04 06:21:22;;;;;;;7.32;1.10;;;7.90;89.60;;;;;;9176852;19;20615;-75
2024/01/04 06:24:30;;;;;;;7.10;0.77;;;7.80;89.60;;;;;;9174247;19;20477;-74
2024/01/04 06:27:35;;;;;;;4.30;0.93;;;7.90;89.70;;;;;;9174432;19;20777;-74
2024/01/04 06:30:43;;;;;;;1.90;0.70;;;7.80;89.60;;;;;;9176677;19;20484;-74
2024/01/04 06:33:52;;;;;;;8.55;1.05;;;7.80;89.60;;;;;;9175741;19;20015;-75
2024/01/04 06:37:00;;;;;;;2.67;0.90;;;7.80;89.60;;;;;;9179658;19;20015;-75
2024/01/04 06:40:08;;;;;;;5.80;0.90;;;7.80;89.50;;;;;;9176993;19;20022;-74
2024/01/04 06:43:16;;;;;;;2.38;0.57;;;7.80;89.50;;;;;;9179507;19;20026;-74
2024/01/04 06:46:21;;;;;;;3.95;0.65;;;7.80;89.40;;;;;;9176091;19;20007;-74
2024/01/04 06:49:31;;;;;;;1.63;0.85;;;7.80;89.40;;;;;;9178117;19;20019;-75
2024/01/04 06:52:37;;;;;;;13.32;1.27;;;7.80;89.40;;;;;;9173803;19;20015;-73
2024/01/04 06:55:45;;;;;;;6.07;0.80;;;7.70;89.30;;;;;;9174660;19;20030;-74
2024/01/04 06:58:50;;;;;;;2.88;0.82;;;7.80;89.40;;;;;;9182441;19;20018;-73
2024/01/04 07:01:58;;;;;;;3.83;1.30;;;7.80;89.50;;;;;;9183604;19;20015;-73
2024/01/04 07:05:07;;;;;;;6.20;1.08;;;7.80;89.40;;;;;;9183805;19;20026;-74
2024/01/04 07:08:19;;;;;;;5.85;1.42;;;7.80;89.40;;;;;;9178454;19;20025;-71
2024/01/04 07:11:25;;;;;;;1.98;1.20;;;7.70;89.40;;;;;;9182817;19;20017;-70
2024/01/04 07:14:32;;;;;;;7.30;1.05;;;7.70;89.30;;;;;;9175136;19;20010;-70
2024/01/04 07:17:44;;;;;;;2.17;0.73;;;7.70;89.30;;;;;;9180711;19;20029;-72
2024/01/04 07:20:57;;;;;;;2.67;1.60;;;7.70;89.40;;;;;;9181387;19;20349;-72
2024/01/04 07:24:03;;;;;;;6.60;2.17;;;7.70;89.40;;;;;;9178991;19;20041;-73
2024/01/04 07:27:13;;;;;;;4.75;1.48;;;7.70;89.50;;;;;;9179925;19;20017;-71
2024/01/04 07:30:19;;;;;;;5.65;1.38;;;7.70;90.00;;;;;;9181133;19;20480;-73
2024/01/04 07:33:27;;;;;;;4.85;1.35;;;7.80;89.50;;;;;;9176499;19;20103;-70
2024/01/04 07:36:37;;;;;;;7.03;1.50;;;7.80;89.50;;;;;;9175778;19;20082;-70
2024/01/04 07:39:45;;;;;;;4.07;0.82;;;7.80;89.50;;;;;;9180305;19;20018;-70
2024/01/04 07:42:54;;;;;;;4.38;0.70;;;7.80;89.50;;;;;;9180273;19;20010;-71
2024/01/04 07:46:02;;;;;;;4.28;1.17;;;7.80;89.50;;;;;;9181410;19;20018;-71
2024/01/04 07:49:07;;;;;;;8.00;1.10;;;7.70;89.40;;;;;;9175155;19;20476;-71
2024/01/04 07:52:18;;;;;;;5.47;2.10;;;7.70;89.40;;;;;;9179942;19;20026;-69
2024/01/04 07:55:26;;;;;;;3.13;1.00;;;7.80;89.40;;;;;;9181599;19;20018;-70
2024/01/04 07:58:34;;;;;;;6.50;1.02;;;7.80;89.40;;;;;;9181269;19;20010;-72
2024/01/04 08:01:40;;;;;;;6.38;1.00;;;7.70;89.30;;;;;;9181009;19;20022;-70
2024/01/04 08:04:50;;;;;;;4.57;0.90;;;7.70;89.30;;;;;;9178705;19;20025;-70
2024/01/04 08:07:58;;;;;;;6.22;1.35;;;7.70;89.30;;;;;;9178357;19;21010;-73
2024/01/04 08:11:06;;;;;;;4.45;1.00;;;7.70;89.30;;;;;;9180190;19;20023;-71
2024/01/04 08:14:11;;;;;;;9.35;1.48;;;7.70;89.20;;;;;;9174767;19;20018;-70
2024/01/04 08:17:19;;;;;;;2.60;0.90;;;7.70;89.30;;;;;;9181414;19;20029;-74
2024/01/04 08:20:25;;;;;;;4.80;0.68;;;7.70;89.20;;;;;;9176264;19;20369;-73
2024/01/04 08:23:41;;;;;;;7.85;1.00;;;7.70;89.30;;;;;;9177337;19;20022;-75
2024/01/04 08:26:47;;;;;;;2.28;0.77;;;7.70;89.20;;;;;;9178156;19;20024;-73
2024/01/04 08:29:55;;;;;;;2.75;0.80;;;7.70;89.20;;;;;;9178989;19;20025;-73
2024/01/04 08:33:01;;;;;;;1.27;0.93;;;7.70;89.10;;;;;;9175584;19;20022;-74
2024/01/04 08:36:09;;;;;;;1.02;0.73;;;7.60;89.10;;;;;;9179099;19;20605;-73
2024/01/04 08:39:21;;;;;;;2.83;0.68;;;7.70;89.10;;;;;;9177408;19;20034;-71
2024/01/04 08:42:28;;;;;;;9.20;1.40;;;7.60;89.10;;;;;;9179265;19;20022;-70
2024/01/04 08:45:34;;;;;;;5.88;1.55;;;7.60;89.20;;;;;;9176444;19;20432;-71
2024/01/04 08:48:41;;;;;;;5.25;1.00;;;7.60;89.20;;;;;;9177725;19;20023;-70
2024/01/04 08:51:47;;;;;;;3.78;1.05;;;7.60;89.20;;;;;;9179445;19;20048;-71
2024/01/04 08:54:57;;;;;;;1.73;0.90;;;7.60;89.20;;;;;;9177048;19;20022;-71
2024/01/04 08:58:04;;;;;;;2.75;0.98;;;7.60;89.20;;;;;;9176981;19;20048;-70
2024/01/04 09:01:12;;;;;;;3.75;1.20;;;7.60;89.10;;;;;;9177645;19;20032;-71
2024/01/04 09:04:20;;;;;;;6.82;1.25;;;7.60;89.20;;;;;;9176215;19;20029;-73
2024/01/04 09:07:28;;;;;;;1.80;0.70;;;7.60;89.10;;;;;;9176781;19;20018;-72
2024/01/04 09:10:36;;;;;;;9.02;1.65;;;7.70;89.10;;;;;;9176307;19;20059;-73
2024/01/04 09:13:45;;;;;;;4.88;1.15;;;7.70;89.10;;;;;;9173977;19;20014;-73
2024/01/04 09:16:51;;;;;;;4.45;1.08;;;7.70;89.10;;;;;;9176176;19;20021;-73
2024/01/04 09:19:59;;;;;;;5.18;1.15;;;7.60;89.10;;;;;;9177049;19;20037;-73
2024/01/04 09:23:05;;;;;;;6.30;0.95;;;7.70;89.10;;;;;;9176863;19;20010;-74
2024/01/04 09:26:15;;;;;;;6.20;1.25;;;7.70;89.10;;;;;;9175280;19;20006;-74
2024/01/04 09:29:22;;;;;;;4.40;1.20;;;7.70;89.10;;;;;;9174571;19;20026;-75
2024/01/04 09:32:29;;;;;;;6.60;1.08;;;7.70;89.10;;;;;;9176613;19;20020;-73
2024/01/04 09:35:37;;;;;;;7.28;1.70;;;7.70;89.10;;;;;;9174795;19;20015;-74
2024/01/04 09:38:46;;;;;;;5.65;1.70;;;7.80;89.20;;;;;;9175203;19;20812;-74
2024/01/04 09:41:59;;;;;;;2.50;0.95;;;7.70;89.10;;;;;;9177176;19;20018;-74
2024/01/04 09:45:11;;;;;;;7.72;1.30;;;7.80;89.10;;;;;;9175643;19;20025;-74
2024/01/04 09:48:21;;;;;;;3.40;1.10;;;7.80;89.10;;;;;;9176829;19;20018;-73
2024/01/04 09:51:39;;;;;;;5.80;1.42;;;7.80;89.10;;;;;;9177776;19;20038;-73
2024/01/04 09:54:47;;;;;;;4.65;1.90;;;7.80;89.10;;;;;;9175958;19;20018;-73
2024/01/04 09:57:59;;;;;;;7.38;1.63;;;7.90;89.10;;;;;;9174473;19;20018;-74
2024/01/04 10:01:06;;;;;;;9.90;1.90;;;7.90;89.10;;;;;;9176268;19;20485;-73
2024/01/04 10:04:16;;;;;;;7.25;1.75;;;7.90;89.10;;;;;;9176362;19;20014;-73
2024/01/04 10:07:25;;;;;;;5.30;1.23;;;7.90;89.10;;;;;;9173837;19;20082;-73
2024/01/04 10:10:37;;;;;;;7.78;1.50;;;8.00;89.20;;;;;;9175691;19;20019;-73
2024/01/04 10:13:46;;;;;;;2.83;1.48;;;8.00;89.10;;;;;;9173558;19;20436;-73
2024/01/04 10:16:56;;;;;;;4.43;1.42;;;8.00;89.10;;;;;;9176207;19;20018;-73
2024/01/04 10:20:04;;;;;;;6.45;1.63;;;8.00;89.00;;;;;;9174128;19;20911;-73
2024/01/04 10:23:13;;;;;;;10.98;3.47;;;8.10;89.10;;;;;;9174855;19;20018;-73
2024/01/04 10:26:22;;;;;;;9.07;4.13;;;8.10;89.00;;;;;;9174590;19;20022;-73
2024/01/04 10:29:35;;;;;;;14.60;4.53;;;8.10;88.90;;;;;;9175634;19;20022;-74
2024/01/04 10:32:41;;;;;;;10.60;3.92;;;8.10;88.90;;;;;;9174988;19;20022;-74
2024/01/04 10:35:49;;;;;;;6.80;2.80;;;8.10;88.90;;;;;;9174584;19;20015;-74
2024/01/04 10:38:54;;;;;;;2.25;1.40;;;8.10;88.90;;;;;;9174288;19;20037;-73
2024/01/04 10:42:02;;;;;;;4.70;1.50;;;8.10;88.90;;;;;;9173280;19;20019;-69
2024/01/04 10:45:11;;;;;;;5.45;1.33;;;8.20;88.90;;;;;;9175023;19;20021;-73
2024/01/04 10:48:20;;;;;;;5.97;1.20;;;8.20;88.80;;;;;;9175276;19;20015;-70
2024/01/04 10:51:27;;;;;;;9.50;1.45;;;8.20;88.80;;;;;;9172613;19;20015;-72
2024/01/04 10:54:37;;;;;;;9.25;2.75;;;8.20;88.80;;;;;;9173734;19;20025;-71
2024/01/04 10:57:43;;;;;;;10.60;2.55;;;8.30;89.40;;;;;;9173633;19;20011;-69
2024/01/04 11:00:58;;;;;;;7.97;2.75;;;8.30;88.70;;;;;;9173173;19;20718;-68
2024/01/04 11:04:04;;;;;;;5.05;2.75;;;8.30;88.70;;;;;;9174714;19;20352;-68
2024/01/04 11:07:16;;;;;;;9.95;2.83;;;8.30;88.70;;;;;;9173222;19;20034;-67
2024/01/04 11:10:22;;;;;;;7.28;3.03;;;8.40;88.70;;;;;;9174385;19;20018;-68
2024/01/04 11:13:29;;;;;;;5.03;2.20;;;8.40;88.70;;;;;;9170384;19;20026;-68
2024/01/04 11:17:02;;;;;;;2.70;1.50;;;8.40;88.60;;;;;;9171137;19;20021;-68
2024/01/04 11:20:18;;;;;;;7.43;2.40;;;8.50;88.60;;;;;;9170651;19;20018;-68
2024/01/04 11:23:36;;;;;;;4.43;1.35;;;8.50;88.50;;;;;;9174663;19;20022;-68
2024/01/04 11:26:56;;;;;;;3.85;1.10;;;8.50;88.60;;;;;;9172592;19;20018;-69
2024/01/04 11:30:03;;;;;;;3.95;1.30;;;8.50;88.60;;;;;;9172799;19;20023;-67
2024/01/04 11:33:14;;;;;;;2.75;1.30;;;8.50;88.50;;;;;;9171688;19;20050;-68
2024/01/04 11:36:21;;;;;;;9.10;1.58;;;8.60;88.50;;;;;;9170094;19;20038;-68
2024/01/04 11:39:29;;;;;;;4.10;1.45;;;8.60;88.50;;;;;;9172307;19;20030;-68
2024/01/04 11:42:36;;;;;;;5.00;1.63;;;8.60;88.50;;;;;;9170255;19;20018;-69
2024/01/04 11:45:45;;;;;;;4.68;1.27;;;8.60;88.50;;;;;;9182446;19;20022;-68
2024/01/04 11:48:58;;;;;;;6.43;1.67;;;8.60;88.50;;;;;;9181357;19;20014;-73
2024/01/04 11:52:07;;;;;;;6.53;2.00;;;8.70;88.50;;;;;;9180729;19;20011;-73
2024/01/04 11:55:13;;;;;;;3.70;1.50;;;8.70;88.50;;;;;;9179726;19;20018;-73
2024/01/04 11:58:28;;;;;;;5.38;1.25;;;8.70;88.40;;;;;;9179127;19;20010;-72
2024/01/04 12:01:34;;;;;;;5.75;1.55;;;8.70;88.30;;;;;;9180810;19;20025;-72
2024/01/04 12:04:45;;;;;;;7.43;1.30;;;8.60;88.30;;;;;;9178551;19;20038;-72
2024/01/04 12:07:51;;;;;;;2.58;1.40;;;8.70;88.30;;;;;;9179103;19;20022;-71
2024/01/04 12:11:00;;;;;;;6.95;1.23;;;8.70;88.20;;;;;;9180213;19;20500;-73
2024/01/04 12:14:08;;;;;;;1.80;0.98;;;8.70;88.20;;;;;;9175774;19;20627;-72
2024/01/04 12:17:16;;;;;;;8.32;1.85;;;8.70;88.10;;;;;;9174953;19;20014;-72
2024/01/04 12:20:24;;;;;;;2.65;1.15;;;8.70;88.10;;;;;;9180546;19;20040;-72
2024/01/04 12:23:32;;;;;;;10.98;1.98;;;8.70;88.10;;;;;;9175605;19;20014;-72
2024/01/04 12:26:37;;;;;;;5.05;1.13;;;8.70;88.00;;;;;;9178644;19;20357;-72
2024/01/04 12:29:45;;;;;;;10.75;1.88;;;8.70;88.00;;;;;;9178534;19;20036;-72
2024/01/04 12:32:53;;;;;;;10.68;1.92;;;8.70;87.90;;;;;;9180559;19;20018;-73
2024/01/04 12:36:03;;;;;;;6.85;0.90;;;8.70;87.90;;;;;;9173632;19;20400;-73
2024/01/04 12:39:11;;;;;;;12.40;1.42;;;8.70;87.80;;;;;;9178380;19;20018;-72
2024/01/04 12:42:20;;;;;;;2.72;0.88;;;8.70;87.80;;;;;;9177804;19;20050;-72
2024/01/04 12:45:29;;;;;;;4.85;1.20;;;8.70;87.80;;;;;;9178126;19;20391;-73
2024/01/04 12:48:37;;;;;;;6.53;1.90;;;8.60;87.70;;;;;;9180264;19;20365;-73
2024/01/04 12:51:50;;;;;;;9.30;1.92;;;8.60;87.70;;;;;;9178121;19;20010;-71
2024/01/04 12:54:57;;;;;;;3.60;1.25;;;8.60;87.60;;;;;;9175348;19;20010;-71
2024/01/04 12:58:03;;;;;;;5.65;1.27;;;8.50;87.60;;;;;;9174972;19;20025;-72
2024/01/04 13:01:11;;;;;;;9.25;1.45;;;8.60;87.60;;;;;;9178645;19;20022;-72
2024/01/04 13:04:16;;;;;;;2.70;1.00;;;8.60;87.50;;;;;;9179196;19;20400;-72
2024/01/04 13:07:27;;;;;;;4.50;1.02;;;8.60;87.50;;;;;;9175478;19;20014;-71
2024/01/04 13:10:33;;;;;;;5.05;1.63;;;8.50;87.40;;;;;;9177475;19;20014;-72
2024/01/04 13:13:42;;;;;;;5.55;1.52;;;8.50;87.50;;;;;;9170638;19;20026;-72
2024/01/04 13:16:50;;;;;;;7.55;1.95;;;8.50;87.40;;;;;;9176405;19;20015;-71
2024/01/04 13:19:57;;;;;;;2.97;1.30;;;8.50;87.40;;;;;;9178149;19;20353;-72
2024/01/04 13:23:06;;;;;;;10.05;2.10;;;8.50;87.40;;;;;;9176668;19;20405;-73
2024/01/04 13:26:13;;;;;;;4.55;1.83;;;8.50;87.40;;;;;;9175599;19;20025;-71
2024/01/04 13:29:19;;;;;;;3.78;1.42;;;8.50;87.40;;;;;;9177839;19;20010;-72
2024/01/04 13:32:27;;;;;;;9.82;1.80;;;8.40;87.40;;;;;;9177455;19;20379;-72
2024/01/04 13:35:32;;;;;;;3.78;1.45;;;8.40;87.30;;;;;;9177930;19;20015;-71
2024/01/04 13:38:43;;;;;;;6.50;1.60;;;8.40;87.30;;;;;;9176299;19;20015;-71
2024/01/04 13:41:48;;;;;;;3.28;1.33;;;8.40;87.30;;;;;;9175783;19;20011;-72
2024/01/04 13:44:56;;;;;;;6.45;1.23;;;8.40;87.30;;;;;;9179103;19;20025;-72
2024/01/04 13:48:03;;;;;;;6.28;1.52;;;8.40;87.30;;;;;;9176354;19;20060;-71
2024/01/04 13:51:11;;;;;;;5.65;1.92;;;8.40;87.30;;;;;;9176589;19;20018;-71
2024/01/04 13:54:19;;;;;;;3.85;1.52;;;8.30;87.30;;;;;;9175699;19;20010;-72
2024/01/04 13:57:27;;;;;;;4.72;1.45;;;8.30;87.30;;;;;;9172935;19;20017;-72
2024/01/04 14:00:33;;;;;;;6.03;1.40;;;8.40;87.30;;;;;;9174678;19;20025;-72
2024/01/04 14:03:46;;;;;;;3.57;1.33;;;8.30;87.90;;;;;;9174732;19;20019;-72
2024/01/04 14:06:52;;;;;;;2.13;1.30;;;8.30;87.30;;;;;;9172063;19;20484;-72
2024/01/04 14:10:07;;;;;;;9.30;1.45;;;8.30;87.30;;;;;;9169211;19;20126;-73
2024/01/04 14:13:13;;;;;;;6.05;1.40;;;8.30;87.30;;;;;;9166685;19;20014;-73
2024/01/04 14:16:21;;;;;;;5.05;1.35;;;8.30;87.40;;;;;;9169325;19;20041;-75
2024/01/04 14:19:27;;;;;;;7.35;1.60;;;8.30;87.40;;;;;;9172202;19;20014;-73
2024/01/04 14:22:35;;;;;;;7.03;1.70;;;8.30;87.30;;;;;;9171670;19;20380;-72
2024/01/04 14:25:43;;;;;;;8.63;1.70;;;8.30;87.30;;;;;;9171253;19;20026;-73
2024/01/04 14:28:51;;;;;;;7.68;1.75;;;8.30;87.30;;;;;;9173171;19;20595;-73
2024/01/04 14:31:57;;;;;;;6.53;1.48;;;8.20;87.30;;;;;;9167981;19;20894;-73
2024/01/04 14:35:05;;;;;;;5.28;1.73;;;8.20;87.30;;;;;;9170418;19;20018;-73
2024/01/04 14:38:11;;;;;;;9.70;2.03;;;8.20;87.20;;;;;;9169422;19;20022;-74
2024/01/04 14:41:24;;;;;;;7.72;1.67;;;8.20;87.20;;;;;;9171046;19;20022;-74
2024/01/04 14:44:32;;;;;;;8.20;3.97;;;8.20;87.20;;;;;;9169252;19;20353;-73
2024/01/04 14:47:41;;;;;;;16.10;5.75;;;8.20;87.30;;;;;;9171922;19;20090;-73
2024/01/04 14:50:47;;;;;;;11.50;4.85;;;8.20;87.30;;;;;;9169996;19;20027;-74
2024/01/04 14:53:55;;;;;;;11.52;4.15;;;8.20;87.30;;;;;;9171104;19;20372;-74
2024/01/04 14:57:04;;;;;;;7.25;3.22;;;8.20;87.20;;;;;;9168094;19;20019;-74
2024/01/04 15:00:14;;;;;;;8.85;3.80;;;8.10;87.20;;;;;;9166547;19;20018;-74
2024/01/04 15:03:20;;;;;;;8.65;3.47;;;8.20;87.30;;;;;;9168696;19;20023;-73
2024/01/04 15:06:27;;;;;;;6.32;3.08;;;8.10;87.30;;;;;;9163783;19;20006;-73
2024/01/04 15:09:33;;;;;;;12.50;3.78;;;8.20;87.30;;;;;;9166931;19;20758;-74
2024/01/04 15:12:43;;;;;;;14.10;4.15;;;8.10;87.30;;;;;;9167189;19;20033;-74
2024/01/04 15:15:51;;;;;;;9.50;4.50;;;8.10;87.30;;;;;;9172658;19;20022;-74
2024/01/04 15:19:00;;;;;;;14.75;5.00;;;8.10;87.30;;;;;;9168624;19;20507;-73
2024/01/04 15:22:06;;;;;;;11.65;4.40;;;8.10;87.30;;;;;;9176751;19;20014;-73
2024/01/04 15:25:16;;;;;;;7.75;2.90;;;8.10;87.30;;;;;;9176360;19;20019;-74
2024/01/04 15:28:24;;;;;;;7.65;2.20;;;8.00;87.20;;;;;;9175860;19;20018;-73
2024/01/04 15:31:32;;;;;;;6.85;2.50;;;8.00;87.30;;;;;;9171837;19;20011;-73
2024/01/04 15:34:37;;;;;;;6.40;2.65;;;8.00;87.20;;;;;;9173587;19;20034;-74
2024/01/04 15:37:49;;;;;;;3.40;1.90;;;8.00;87.20;;;;;;9176710;19;20015;-73
2024/01/04 15:40:54;;;;;;;7.15;1.83;;;8.00;87.20;;;;;;9176767;19;20030;-73
2024/01/04 15:44:08;;;;;;;5.70;2.22;;;8.00;87.20;;;;;;9179099;19;20030;-73
2024/01/04 15:47:15;;;;;;;9.23;4.00;;;8.00;87.30;;;;;;9175270;19;20022;-73
2024/01/04 15:50:24;;;;;;;11.68;3.47;;;7.90;87.30;;;;;;9177056;19;20358;-73
2024/01/04 15:53:30;;;;;;;6.18;2.17;;;7.90;87.20;;;;;;9176321;19;20061;-74
2024/01/04 15:56:38;;;;;;;7.28;2.17;;;7.90;87.10;;;;;;9176377;19;20014;-73
2024/01/04 15:59:46;;;;;;;5.43;2.20;;;7.80;87.10;;;;;;9174660;19;20342;-74
2024/01/04 16:02:54;;;;;;;10.60;2.38;;;7.80;87.10;;;;;;9169855;19;20003;-73
2024/01/04 16:06:00;;;;;;;6.10;2.10;;;7.80;87.20;;;;;;9172204;19;20019;-74
2024/01/04 16:09:09;;;;;;;5.10;2.08;;;7.80;87.20;;;;;;9175307;19;20006;-73
2024/01/04 16:12:15;;;;;;;3.80;1.70;;;7.80;87.20;;;;;;9169272;19;20314;-73
2024/01/04 16:15:25;;;;;;;3.83;1.90;;;7.80;87.30;;;;;;9166884;19;20026;-73
2024/01/04 16:18:32;;;;;;;7.93;3.35;;;7.70;87.30;;;;;;9171900;19;20029;-74
2024/01/04 16:21:40;;;;;;;14.40;3.53;;;7.70;87.30;;;;;;9174898;19;20022;-73
2024/01/04 16:24:45;;;;;;;9.73;3.00;;;7.70;87.30;;;;;;9174898;19;20007;-73
2024/01/04 16:27:53;;;;;;;8.18;3.20;;;7.70;87.40;;;;;;9176783;19;20033;-74
2024/01/04 16:31:01;;;;;;;4.57;2.45;;;7.70;87.40;;;;;;9171502;19;21727;-73